Sign-in with your pilot id or email, or register

ICAO: NFTF Name / Country: Fua?amotu International Airport / Tonga
Latitude: -21.2412 Longitude: -175.15
Total Arrivals:
Strict Standards: Non-static method AirportData::getarrflights() should not be called statically, assuming $this from incompatible context in /var/www/customers/vh-7192/web/home/phpvms/core/templates/airport_info.tpl on line 18
1
Total Departures:
Strict Standards: Non-static method AirportData::getdeptflights() should not be called statically, assuming $this from incompatible context in /var/www/customers/vh-7192/web/home/phpvms/core/templates/airport_info.tpl on line 21
1
Latest Arrival: MTA5PM (NFFN-NFTF) Tibor Berces Latest Departure: MTA5PM (NFTF-NSFA) Tibor Berces
Metar: NFTF 270900Z 09006KT 9999 FEW015 22/19 Q1020
More info

Charts for NFTF


NOTAM


Warning: file_get_contents(http://api.vateud.net/notams/NFTF.json): failed to open stream: Redirection limit reached, aborting in /var/www/customers/vh-7192/web/home/phpvms/core/common/NOTAMSData.class.php on line 18

Warning: Invalid argument supplied for foreach() in /var/www/customers/vh-7192/web/home/phpvms/core/common/NOTAMSData.class.php on line 22

Fua?amotu International Airport